Morgan City, Louisiana
Current Conditions -  °F | °C
As of 1:55 AM on Monday 24 Nov 2014 (Local Time) from KPTN Reporting Station
Broken Clouds Broken Clouds  
Wind Chill: 66°   Ceiling: 800
Heat Index: 66°   Visibility: 5mi
Dew Point: 66°   Wind: 8mph
Humidity: 100%   Direction: 230°SW
Pressure: 29.76"   Gusts: NA
Location:  29.7°N, 91.2°W
Report Text: KPTN 240755Z AUTO 23007KT 5SM BKN008 19/19 A2976 RMK AO1
Loading
Personal Weather Stations






























Interactive Weather Map New forecast layout! Learn more

10-Day Weather Forecast

Advertisements
Track Severe Weather on mobile